Time;durP1;ratioP1;P1;durP2;ratioP2;P2;SDS_P1;SDS_P2;PMS_P1;PMS_P2;Temp;Humidity;BMP_temperature;BMP_pressure;BME280_temperature;BME280_humidity;BME280_pressure;Samples;Min_cycle;Max_cycle;Signal;HPM_P1;HPM_P2
2022/03/31 00:00:50;;;;;;;15.15;7.70;;;;;;;12.79;68.36;97631.19;4232699;33;35160;-80
2022/03/31 00:03:20;;;;;;;13.70;6.95;;;;;;;13.01;67.20;97622.34;4232630;33;34626;-80
2022/03/31 00:05:49;;;;;;;13.85;7.12;;;;;;;13.30;66.01;97618.28;4243013;33;33693;-80
2022/03/31 00:08:19;;;;;;;12.48;6.78;;;;;;;12.98;66.99;97615.50;4232368;33;33889;-79
2022/03/31 00:10:52;;;;;;;16.30;7.62;;;;;;;12.21;69.58;97618.22;4242926;33;34333;-79
2022/03/31 00:13:23;;;;;;;14.00;7.25;;;;;;;12.35;69.87;97625.44;4233263;33;34911;-80
2022/03/31 00:15:54;;;;;;;15.27;7.80;;;;;;;11.79;71.21;97627.84;4231312;33;34567;-78
2022/03/31 00:18:22;;;;;;;22.13;8.23;;;;;;;12.27;69.09;97618.78;4232698;33;33062;-79
2022/03/31 00:20:50;;;;;;;15.00;6.95;;;;;;;11.97;70.68;97614.97;4231864;33;35878;-80
2022/03/31 00:23:18;;;;;;;16.70;7.22;;;;;;;11.85;71.34;97617.13;4232215;33;35252;-79
2022/03/31 00:25:46;;;;;;;21.02;7.87;;;;;;;11.89;71.42;97616.09;4231367;33;33553;-79
2022/03/31 00:28:13;;;;;;;15.40;7.30;;;;;;;12.57;68.62;97614.84;4231309;33;33875;-79
2022/03/31 00:30:42;;;;;;;12.80;7.50;;;;;;;12.74;67.69;97609.69;4231257;33;35975;-80
2022/03/31 00:33:10;;;;;;;15.82;6.80;;;;;;;12.92;66.73;97607.97;4232144;33;34252;-80
2022/03/31 00:35:38;;;;;;;18.92;7.18;;;;;;;12.46;67.85;97600.53;4231409;33;33670;-80
2022/03/31 00:38:06;;;;;;;21.05;8.13;;;;;;;12.47;67.67;97596.16;4232469;33;33955;-80
2022/03/31 00:40:34;;;;;;;15.25;6.57;;;;;;;11.98;69.54;97606.19;4232403;33;35166;-80
2022/03/31 00:43:02;;;;;;;16.73;7.55;;;;;;;11.89;69.68;97597.81;4233098;33;35281;-79
2022/03/31 00:45:34;;;;;;;15.57;7.60;;;;;;;11.98;69.43;97598.38;4231366;33;34511;-78
2022/03/31 00:48:02;;;;;;;14.32;7.28;;;;;;;11.93;70.23;97598.59;4231981;33;34836;-78
2022/03/31 00:50:33;;;;;;;19.70;6.82;;;;;;;11.80;71.28;97598.25;4242713;33;34379;-78
2022/03/31 00:53:01;;;;;;;15.27;6.45;;;;;;;12.10;69.84;97590.84;4233149;33;33627;-79
2022/03/31 00:55:49;;;;;;;12.60;7.12;;;;;;;12.47;68.46;97590.94;4240148;33;34415;-78
2022/03/31 00:58:18;;;;;;;12.40;7.25;;;;;;;12.29;68.54;97584.81;4231876;33;33862;-79
2022/03/31 01:00:46;;;;;;;12.75;6.78;;;;;;;12.89;65.93;97576.75;4232242;33;35837;-79
2022/03/31 01:03:14;;;;;;;16.40;7.80;;;;;;;12.86;65.67;97575.13;4232969;33;35397;-79
2022/03/31 01:05:42;;;;;;;12.57;7.22;;;;;;;12.12;68.85;97569.91;4232165;33;33694;-80
2022/03/31 01:08:10;;;;;;;14.18;6.47;;;;;;;11.98;69.36;97564.47;4232809;33;33916;-79
2022/03/31 01:10:39;;;;;;;12.90;6.45;;;;;;;12.21;69.45;97568.63;4231747;33;35137;-80
2022/03/31 01:13:07;;;;;;;14.57;7.10;;;;;;;12.79;66.58;97562.44;4231256;33;35296;-80
2022/03/31 01:15:38;;;;;;;18.52;7.30;;;;;;;12.60;66.90;97552.91;4241470;33;33852;-79
2022/03/31 01:18:06;;;;;;;13.62;6.85;;;;;;;13.02;65.04;97564.81;4233038;33;34117;-79
2022/03/31 01:20:34;;;;;;;16.62;6.82;;;;;;;13.12;64.57;97559.94;4242448;33;35130;-79
2022/03/31 01:23:09;;;;;;;15.68;7.40;;;;;;;12.66;65.70;97555.19;4231942;33;34586;-79
2022/03/31 01:25:37;;;;;;;13.43;7.22;;;;;;;11.89;68.71;97556.09;4230809;33;33677;-79
2022/03/31 01:28:05;;;;;;;17.05;7.75;;;;;;;12.61;66.74;97554.56;4232701;33;33635;-78
2022/03/31 01:30:33;;;;;;;17.35;5.97;;;;;;;11.72;70.10;97551.66;4231574;33;34707;-79
2022/03/31 01:33:02;;;;;;;15.82;6.55;;;;;;;11.93;69.58;97549.88;4232523;33;34486;-80
2022/03/31 01:35:30;;;;;;;15.07;6.53;;;;;;;12.54;67.04;97544.50;4232466;33;33689;-79
2022/03/31 01:37:57;;;;;;;15.05;6.75;;;;;;;12.89;65.22;97541.03;4234258;33;33924;-79
2022/03/31 01:40:26;;;;;;;13.57;6.40;;;;;;;12.90;64.96;97540.13;4233371;33;35129;-79
2022/03/31 01:42:54;;;;;;;20.15;7.40;;;;;;;12.85;65.04;97538.66;4234327;33;35289;-79
2022/03/31 01:45:22;;;;;;;10.57;7.00;;;;;;;12.31;66.86;97531.59;4233528;33;33725;-79
2022/03/31 01:47:50;;;;;;;14.90;7.68;;;;;;;11.77;69.34;97536.66;4234246;33;34419;-78
2022/03/31 01:50:18;;;;;;;17.65;7.35;;;;;;;11.60;70.25;97539.16;4233358;33;35113;-78
2022/03/31 01:52:46;;;;;;;14.48;7.25;;;;;;;11.66;70.65;97531.03;4233356;33;34916;-78
2022/03/31 01:55:14;;;;;;;16.70;8.38;;;;;;;11.68;70.32;97531.84;4233758;33;33797;-79
2022/03/31 01:57:42;;;;;;;15.60;7.12;;;;;;;11.48;71.32;97540.53;4234272;33;34020;-78
2022/03/31 02:00:10;;;;;;;19.75;8.38;;;;;;;11.63;71.11;97535.56;4232217;33;35949;-80
2022/03/31 02:02:40;;;;;;;13.82;8.52;;;;;;;11.51;71.64;97532.59;4232420;33;34596;-79
2022/03/31 02:05:08;;;;;;;14.25;7.60;;;;;;;12.00;70.05;97526.09;4220627;33;32792;-79
2022/03/31 02:07:38;;;;;;;17.10;7.57;;;;;;;11.72;71.16;97522.13;4244864;33;34790;-79
2022/03/31 02:10:13;;;;;;;16.70;7.85;;;;;;;11.54;71.33;97519.41;4241344;33;34449;-80
2022/03/31 02:12:41;;;;;;;16.12;8.05;;;;;;;11.41;72.23;97513.03;4233864;33;35141;-80
2022/03/31 02:15:12;;;;;;;13.77;6.93;;;;;;;11.47;71.44;97518.00;4233434;33;33606;-79
2022/03/31 02:17:40;;;;;;;22.30;8.13;;;;;;;11.29;71.71;97519.62;4232916;33;34025;-79
2022/03/31 02:20:09;;;;;;;18.02;7.28;;;;;;;11.44;71.22;97520.72;4232109;33;35169;-80
2022/03/31 02:22:37;;;;;;;13.80;7.07;;;;;;;11.50;70.50;97520.44;4234035;33;34062;-78
2022/03/31 02:25:10;;;;;;;13.77;8.05;;;;;;;11.52;70.18;97515.16;4233368;33;33861;-78
2022/03/31 02:27:38;;;;;;;19.23;8.93;;;;;;;11.63;69.75;97518.16;4232554;33;34758;-79
2022/03/31 02:30:07;;;;;;;14.63;8.70;;;;;;;11.91;68.37;97516.94;4233221;33;36082;-78
2022/03/31 02:32:37;;;;;;;14.80;6.93;;;;;;;11.78;68.49;97511.41;4232995;33;33422;-79
2022/03/31 02:35:06;;;;;;;14.25;8.15;;;;;;;11.55;69.11;97526.31;4243666;33;34555;-79
2022/03/31 02:37:34;;;;;;;19.25;8.02;;;;;;;12.02;67.88;97524.28;4233973;33;33892;-78
2022/03/31 02:40:05;;;;;;;12.35;6.68;;;;;;;12.10;66.49;97517.78;4232977;33;35932;-78
2022/03/31 02:42:36;;;;;;;14.80;7.60;;;;;;;12.26;66.22;97512.69;4233930;33;34841;-79
2022/03/31 02:45:06;;;;;;;13.15;7.25;;;;;;;12.33;65.70;97508.91;4233278;33;33677;-78
2022/03/31 02:47:35;;;;;;;14.98;8.40;;;;;;;12.07;66.38;97501.44;4233919;33;35414;-78
2022/03/31 02:50:04;;;;;;;21.73;8.35;;;;;;;12.14;65.94;97497.62;4232912;33;35040;-79
2022/03/31 02:55:25;;;;;;;;;;;;;;;10.77;72.34;97491.41;4232734;33;34639;-79
2022/03/31 02:57:53;;;;;;;16.55;7.87;;;;;;;12.01;66.86;97486.06;4232510;33;34307;-79
2022/03/31 03:00:22;;;;;;;18.65;8.00;;;;;;;11.34;69.02;97490.78;4232990;33;35153;-79
2022/03/31 03:02:50;;;;;;;14.75;8.35;;;;;;;10.45;72.98;97479.72;4231849;33;34413;-79
2022/03/31 03:05:18;;;;;;;13.25;7.15;;;;;;;10.75;71.71;97485.44;4232955;33;33580;-79
2022/03/31 03:07:49;;;;;;;15.48;7.72;;;;;;;11.86;67.37;97493.66;4233652;33;33951;-79
2022/03/31 03:10:17;;;;;;;15.80;7.85;;;;;;;11.87;66.95;97489.28;4232888;33;34950;-79
2022/03/31 03:12:45;;;;;;;16.70;8.85;;;;;;;11.71;67.08;97483.91;4244030;33;33030;-79
2022/03/31 03:15:13;;;;;;;17.73;8.43;;;;;;;12.09;65.28;97478.75;4232942;33;33748;-80
2022/03/31 03:17:42;;;;;;;18.27;8.52;;;;;;;12.09;65.34;97479.59;4233541;33;33744;-79
2022/03/31 03:20:13;;;;;;;26.30;10.05;;;;;;;11.77;66.30;97475.84;4230081;33;35029;-79
2022/03/31 03:22:47;;;;;;;20.98;9.80;;;;;;;11.13;69.98;97476.91;4232804;33;34690;-79
2022/03/31 03:25:15;;;;;;;18.45;8.68;;;;;;;11.46;68.35;97468.53;4232251;33;34391;-79
2022/03/31 03:27:45;;;;;;;14.35;8.02;;;;;;;10.78;70.30;97469.69;4233693;33;34847;-79
2022/03/31 03:30:13;;;;;;;19.25;8.40;;;;;;;10.47;73.40;97472.69;4232763;33;35011;-79
2022/03/31 03:32:41;;;;;;;16.33;8.43;;;;;;;11.53;68.33;97468.19;4233647;33;35388;-79
2022/03/31 03:35:10;;;;;;;15.60;8.23;;;;;;;11.34;68.40;97467.31;4232737;33;33591;-79
2022/03/31 03:37:39;;;;;;;16.45;8.07;;;;;;;11.00;69.48;97460.97;4231824;33;34890;-79
2022/03/31 03:40:09;;;;;;;12.65;8.10;;;;;;;11.16;69.31;97461.16;4231623;33;34990;-79
2022/03/31 03:42:38;;;;;;;23.98;8.90;;;;;;;11.15;68.82;97455.09;4232594;33;33703;-79
2022/03/31 03:45:08;;;;;;;15.90;7.78;;;;;;;11.13;69.05;97451.69;4232793;33;33727;-82
2022/03/31 03:47:36;;;;;;;19.08;8.65;;;;;;;11.41;67.57;97444.44;4230582;33;33886;-79
2022/03/31 03:50:06;;;;;;;20.65;8.80;;;;;;;11.20;68.21;97440.09;4232553;33;35046;-78
2022/03/31 03:52:34;;;;;;;20.52;9.48;;;;;;;11.27;68.38;97443.28;4232523;33;34670;-79
2022/03/31 03:55:02;;;;;;;17.67;10.05;;;;;;;10.63;71.50;97449.50;4230626;33;33550;-79
2022/03/31 03:57:31;;;;;;;18.52;9.35;;;;;;;10.38;73.53;97449.66;4232230;33;33802;-79
2022/03/31 03:59:58;;;;;;;20.08;11.30;;;;;;;10.62;73.19;97445.19;4232617;33;34851;-79
2022/03/31 04:02:26;;;;;;;17.80;9.82;;;;;;;10.64;73.19;97435.56;4220576;33;34486;-79
2022/03/31 04:04:54;;;;;;;17.12;9.43;;;;;;;10.61;73.83;97440.91;4232723;33;33962;-80
2022/03/31 04:07:22;;;;;;;22.37;9.07;;;;;;;10.31;74.72;97441.25;4233146;33;34038;-79
2022/03/31 04:09:50;;;;;;;15.52;9.48;;;;;;;10.73;73.32;97432.59;4232271;33;35203;-80
2022/03/31 04:12:18;;;;;;;22.80;10.32;;;;;;;10.90;72.18;97438.81;4232924;33;35225;-78
2022/03/31 04:14:46;;;;;;;23.87;10.48;;;;;;;10.79;72.66;97437.53;4241858;33;33803;-79
2022/03/31 04:17:14;;;;;;;17.65;9.32;;;;;;;11.21;70.88;97438.34;4243687;33;33852;-79
2022/03/31 04:19:45;;;;;;;22.98;10.18;;;;;;;11.09;71.20;97433.69;4242662;33;35049;-79
2022/03/31 04:22:13;;;;;;;21.70;10.23;;;;;;;10.96;71.83;97435.97;4233078;33;34392;-79
2022/03/31 04:24:41;;;;;;;18.02;10.18;;;;;;;11.37;69.70;97430.72;4232422;33;33644;-79
2022/03/31 04:27:09;;;;;;;22.35;10.77;;;;;;;11.34;69.89;97438.66;4233083;33;33850;-79
2022/03/31 04:29:36;;;;;;;20.58;10.48;;;;;;;11.13;71.01;97435.22;4232285;33;35861;-80
2022/03/31 04:32:05;;;;;;;19.75;9.77;;;;;;;11.41;70.21;97434.03;4233127;33;35230;-79
2022/03/31 04:34:34;;;;;;;18.02;8.90;;;;;;;11.23;71.15;97427.88;4231412;33;34509;-79
2022/03/31 04:37:02;;;;;;;17.60;10.48;;;;;;;12.07;67.81;97436.22;4233100;33;33599;-79
2022/03/31 04:39:30;;;;;;;16.65;9.00;;;;;;;12.08;67.10;97443.13;4232189;33;35079;-79
2022/03/31 04:41:58;;;;;;;18.42;9.77;;;;;;;11.55;68.51;97437.69;4220390;33;35113;-79
2022/03/31 04:44:26;;;;;;;15.52;9.05;;;;;;;10.88;71.46;97436.28;4232293;33;33572;-79
2022/03/31 04:46:54;;;;;;;16.17;8.68;;;;;;;10.86;71.81;97429.47;4231812;33;33751;-78
2022/03/31 04:49:22;;;;;;;15.95;8.88;;;;;;;10.90;72.22;97425.81;4231560;33;35912;-79
2022/03/31 04:51:50;;;;;;;16.75;9.25;;;;;;;10.49;74.18;97424.03;4218116;34;34471;-81
2022/03/31 04:54:17;;;;;;;16.87;10.10;;;;;;;10.70;74.02;97417.09;4229316;33;34546;-78
2022/03/31 04:56:46;;;;;;;21.83;10.05;;;;;;;10.64;75.05;97422.53;4232538;33;32034;-86
2022/03/31 04:59:13;;;;;;;17.33;9.93;;;;;;;11.90;69.44;97421.34;4243290;33;35793;-86
2022/03/31 05:01:41;;;;;;;15.43;8.93;;;;;;;12.07;68.06;97425.78;4242288;33;35191;-86
2022/03/31 05:04:10;;;;;;;18.05;9.63;;;;;;;11.66;69.57;97420.72;4232338;33;34345;-86
2022/03/31 05:06:38;;;;;;;16.05;8.43;;;;;;;11.14;72.79;97427.34;4232021;33;33796;-86
2022/03/31 05:09:06;;;;;;;18.73;8.95;;;;;;;11.22;72.46;97415.75;4232612;33;35889;-86
2022/03/31 05:11:34;;;;;;;18.92;9.13;;;;;;;10.84;74.98;97419.13;4232126;33;35276;-85
2022/03/31 05:14:02;;;;;;;17.20;9.48;;;;;;;12.05;69.84;97423.28;4232537;33;34349;-87
2022/03/31 05:16:31;;;;;;;18.25;9.18;;;;;;;11.60;71.06;97418.41;4230651;33;33512;-86
2022/03/31 05:18:59;;;;;;;17.67;9.35;;;;;;;11.38;73.53;97420.22;4232539;33;35895;-88
2022/03/31 05:21:27;;;;;;;16.17;9.40;;;;;;;11.62;72.59;97421.78;4241650;33;34045;-85
2022/03/31 05:23:55;;;;;;;18.73;9.27;;;;;;;12.15;70.16;97418.44;4231989;33;35159;-85
2022/03/31 05:26:23;;;;;;;17.27;9.35;;;;;;;12.22;69.92;97427.66;4231760;33;34661;-84
2022/03/31 05:28:51;;;;;;;18.90;9.27;;;;;;;12.58;68.13;97416.31;4231760;33;35228;-88
2022/03/31 05:31:19;;;;;;;19.83;10.32;;;;;;;11.29;73.28;97424.97;4231055;33;35289;-86
2022/03/31 05:33:47;;;;;;;21.37;9.50;;;;;;;11.02;75.05;97414.03;4232600;33;34560;-88
2022/03/31 05:36:15;;;;;;;14.68;9.73;;;;;;;11.58;73.86;97416.69;4230566;33;33906;-87
2022/03/31 05:38:43;;;;;;;18.33;10.45;;;;;;;11.08;76.45;97412.00;4231405;33;34726;-88
2022/03/31 05:41:11;;;;;;;20.23;11.30;;;;;;;11.20;76.49;97419.25;4230581;33;34568;-87
2022/03/31 05:43:39;;;;;;;17.92;10.18;;;;;;;11.47;75.46;97413.75;4232434;33;33288;-88
2022/03/31 05:46:07;;;;;;;18.67;10.15;;;;;;;12.16;73.08;97412.31;4228618;33;32446;-86
2022/03/31 05:48:35;;;;;;;18.48;9.07;;;;;;;11.25;76.43;97410.41;4232001;33;35932;-87
2022/03/31 05:51:03;;;;;;;21.27;10.50;;;;;;;11.97;74.08;97412.34;4231188;33;34950;-87
2022/03/31 05:53:31;;;;;;;17.62;10.35;;;;;;;11.67;73.52;97410.22;4232250;33;34524;-86
2022/03/31 05:55:59;;;;;;;18.48;9.27;;;;;;;11.61;74.78;97410.47;4230634;33;34832;-85
2022/03/31 05:58:27;;;;;;;18.05;10.57;;;;;;;12.24;72.79;97420.59;4217950;34;34990;-86
2022/03/31 06:00:55;;;;;;;19.48;10.02;;;;;;;11.25;77.18;97419.06;4224594;33;34415;-86
2022/03/31 06:03:23;;;;;;;17.60;10.13;;;;;;;11.51;76.65;97420.50;4231940;33;33455;-89
2022/03/31 06:05:52;;;;;;;21.45;11.07;;;;;;;11.22;77.51;97423.56;4231263;33;34853;-88
2022/03/31 06:08:20;;;;;;;18.90;11.18;;;;;;;11.28;78.29;97423.31;4230874;33;35877;-85
2022/03/31 06:10:48;;;;;;;19.25;10.20;;;;;;;11.64;76.63;97425.16;4230146;33;34080;-86
2022/03/31 06:13:16;;;;;;;17.62;10.85;;;;;;;11.61;76.44;97420.06;4230380;33;33752;-91
2022/03/31 06:15:43;;;;;;;17.55;10.73;;;;;;;11.43;77.33;97420.00;4230887;33;33831;-90
2022/03/31 06:18:12;;;;;;;19.42;11.12;;;;;;;11.22;77.51;97419.19;4234019;33;35775;-91
2022/03/31 06:20:40;;;;;;;24.33;11.98;;;;;;;11.31;78.35;97420.53;4233271;33;33972;-90
2022/03/31 06:23:08;;;;;;;23.00;12.15;;;;;;;11.57;76.87;97428.03;4234062;33;33740;-84
2022/03/31 06:25:36;;;;;;;22.42;11.02;;;;;;;11.37;78.64;97430.72;4232180;33;33871;-91
2022/03/31 06:28:04;;;;;;;23.40;11.70;;;;;;;11.70;77.55;97435.28;4232475;33;34594;-90
2022/03/31 06:30:32;;;;;;;24.75;11.73;;;;;;;11.33;78.82;97431.75;4231351;33;34946;-91
2022/03/31 06:33:00;;;;;;;18.73;11.40;;;;;;;11.48;78.47;97430.22;4233283;33;33869;-90
2022/03/31 06:35:29;;;;;;;18.62;10.35;;;;;;;12.07;75.59;97444.91;4233260;33;34467;-89
2022/03/31 06:37:56;;;;;;;20.48;11.68;;;;;;;11.98;75.98;97449.69;4244431;33;34999;-90
2022/03/31 06:40:25;;;;;;;22.08;12.50;;;;;;;11.47;78.77;97445.03;4233088;33;34134;-88
2022/03/31 06:42:53;;;;;;;21.83;11.52;;;;;;;11.54;78.15;97446.44;4221391;33;34159;-91
2022/03/31 06:45:21;;;;;;;31.42;12.73;;;;;;;11.96;76.10;97447.16;4233146;33;33783;-88
2022/03/31 06:47:57;;;;;;;27.60;13.90;;;;;;;12.44;73.40;97452.72;4244531;33;35254;-90
2022/03/31 06:50:33;;;;;;;21.17;13.00;;;;;;;12.59;72.99;97465.03;4232163;33;34405;-89
2022/03/31 06:53:02;;;;;;;20.42;13.02;;;;;;;12.46;73.04;97461.34;4233853;33;33529;-89
2022/03/31 06:55:30;;;;;;;24.98;13.38;;;;;;;13.15;69.26;97455.28;4233200;33;34613;-86
2022/03/31 06:57:57;;;;;;;24.55;12.68;;;;;;;12.62;71.04;97459.66;4232686;33;34981;-86
2022/03/31 07:00:26;;;;;;;25.37;12.98;;;;;;;12.51;71.40;97459.31;4233144;33;34417;-92
2022/03/31 07:02:54;;;;;;;24.40;12.10;;;;;;;12.45;72.08;97455.25;4232721;33;33624;-92
2022/03/31 07:05:22;;;;;;;22.85;11.70;;;;;;;12.48;71.93;97459.50;4231282;33;33802;-92
2022/03/31 07:07:50;;;;;;;20.65;11.20;;;;;;;12.75;70.11;97451.22;4229385;33;35050;-93
2022/03/31 07:10:18;;;;;;;20.37;11.02;;;;;;;12.42;70.71;97452.78;4223947;33;34176;-91
2022/03/31 07:12:47;;;;;;;25.42;12.55;;;;;;;11.95;73.46;97443.72;4220492;33;33630;-91
2022/03/31 07:15:15;;;;;;;22.98;12.52;;;;;;;12.00;74.10;97442.63;4233111;33;34636;-92
2022/03/31 07:17:43;;;;;;;24.27;13.07;;;;;;;12.16;74.08;97438.41;4232938;33;34938;-91
2022/03/31 07:20:11;;;;;;;28.70;12.25;;;;;;;12.01;75.10;97437.34;4233107;33;34497;-90
2022/03/31 07:22:49;;;;;;;25.37;12.55;;;;;;;12.56;73.05;97430.41;4231820;33;33790;-91
2022/03/31 07:25:18;;;;;;;27.42;13.45;;;;;;;12.45;73.55;97433.53;4233156;33;33913;-91
2022/03/31 07:27:46;;;;;;;21.85;12.93;;;;;;;12.57;73.28;97430.31;4231695;33;34742;-91
2022/03/31 07:30:15;;;;;;;25.08;13.98;;;;;;;12.72;72.75;97436.53;4233095;33;33911;-91
2022/03/31 07:32:51;;;;;;;26.80;13.73;;;;;;;12.69;72.13;97437.53;4230520;33;33611;-91
2022/03/31 07:35:21;;;;;;;23.58;12.77;;;;;;;12.74;72.89;97433.84;4231953;33;34657;-82
2022/03/31 07:37:51;;;;;;;25.80;13.98;;;;;;;12.43;74.04;97432.78;4233588;33;34886;-83
2022/03/31 07:40:20;;;;;;;25.10;13.52;;;;;;;12.39;74.72;97441.66;4241444;33;34956;-90
2022/03/31 07:42:49;;;;;;;25.88;13.32;;;;;;;12.84;71.88;97438.53;4232451;33;34633;-88
2022/03/31 07:45:17;;;;;;;26.20;13.57;;;;;;;13.05;71.26;97440.97;4232324;33;34769;-91
2022/03/31 07:47:46;;;;;;;27.83;13.57;;;;;;;12.85;71.48;97432.41;4233554;33;35226;-91
2022/03/31 07:50:15;;;;;;;24.33;13.88;;;;;;;12.53;72.96;97441.84;4231707;33;34352;-91
2022/03/31 07:52:44;;;;;;;26.02;13.93;;;;;;;12.07;74.99;97433.59;4229818;33;33323;-91
2022/03/31 07:55:14;;;;;;;26.15;13.30;;;;;;;12.20;76.03;97432.13;4219160;33;34019;-89
2022/03/31 07:57:44;;;;;;;24.33;13.52;;;;;;;12.27;75.47;97433.50;4233481;33;34476;-90
2022/03/31 08:00:14;;;;;;;25.05;14.57;;;;;;;11.54;79.46;97436.00;4232008;33;34422;-91
2022/03/31 08:02:43;;;;;;;26.73;13.38;;;;;;;11.64;79.30;97431.22;4243751;33;32937;-93
2022/03/31 08:05:16;;;;;;;29.65;15.25;;;;;;;11.60;78.12;97431.44;4232350;33;33916;-91
2022/03/31 08:07:44;;;;;;;25.48;13.20;;;;;;;11.92;77.64;97430.81;4232359;33;35182;-86
2022/03/31 08:10:12;;;;;;;27.02;13.88;;;;;;;11.41;80.58;97432.25;4232132;33;34891;-89
2022/03/31 08:12:40;;;;;;;23.30;13.18;;;;;;;12.19;77.81;97427.81;4233043;33;31488;-83
2022/03/31 08:15:09;;;;;;;24.40;12.48;;;;;;;12.40;76.59;97435.53;4230270;33;33825;-83
2022/03/31 08:17:38;;;;;;;23.83;12.65;;;;;;;12.39;76.37;97426.00;4231792;33;35950;-89
2022/03/31 08:20:08;;;;;;;22.23;12.35;;;;;;;12.97;72.67;97420.50;4233152;33;34215;-89
2022/03/31 08:22:38;;;;;;;19.67;12.52;;;;;;;12.35;76.08;97421.84;4232244;33;33171;-88
2022/03/31 08:25:07;;;;;;;22.73;12.70;;;;;;;12.51;75.51;97407.97;4233187;33;33817;-89
2022/03/31 08:27:37;;;;;;;21.20;11.93;;;;;;;12.66;73.73;97405.53;4232250;33;35046;-88
2022/03/31 08:30:11;;;;;;;22.67;13.25;;;;;;;13.05;72.53;97394.78;4231970;33;35351;-84
2022/03/31 08:32:42;;;;;;;25.02;12.93;;;;;;;12.42;76.32;97391.91;4219552;33;33589;-91
2022/03/31 08:35:11;;;;;;;23.98;12.85;;;;;;;12.81;73.53;97383.00;4242307;33;33868;-89
2022/03/31 08:37:39;;;;;;;25.85;13.32;;;;;;;12.78;73.77;97394.47;4242560;33;34956;-91
2022/03/31 08:40:11;;;;;;;27.73;14.82;;;;;;;12.67;74.95;97397.62;4231337;33;34596;-90
2022/03/31 08:42:40;;;;;;;27.25;12.95;;;;;;;12.39;74.72;97392.94;4232076;33;34522;-89
2022/03/31 08:45:11;;;;;;;20.62;12.80;;;;;;;12.40;75.98;97388.53;4232662;33;33592;-84
2022/03/31 08:47:42;;;;;;;25.90;11.65;;;;;;;13.20;71.65;97368.78;4231973;33;34776;-84
2022/03/31 08:50:21;;;;;;;26.27;12.70;;;;;;;12.70;73.82;97378.31;4232268;33;34395;-91
2022/03/31 08:52:50;;;;;;;27.00;11.63;;;;;;;13.31;71.11;97371.72;4231194;33;33105;-84
2022/03/31 08:55:18;;;;;;;22.85;12.63;;;;;;;12.83;73.19;97379.41;4232104;33;34256;-91
2022/03/31 08:57:48;;;;;;;26.30;13.07;;;;;;;12.47;75.10;97374.25;4230330;33;35045;-91
2022/03/31 09:00:20;;;;;;;25.75;12.82;;;;;;;12.26;75.90;97374.41;4230962;33;33267;-85
2022/03/31 09:02:59;;;;;;;32.65;13.02;;;;;;;12.70;74.45;97363.50;4227533;33;33683;-91
2022/03/31 09:05:35;;;;;;;24.80;13.07;;;;;;;12.87;74.12;97360.03;4242597;33;33827;-83
2022/03/31 09:08:05;;;;;;;23.95;12.80;;;;;;;12.60;75.98;97359.69;4218604;34;35701;-84
2022/03/31 09:10:42;;;;;;;24.30;13.43;;;;;;;12.80;75.72;97363.03;4228511;33;34789;-90
2022/03/31 09:13:24;;;;;;;31.50;14.00;;;;;;;12.71;75.28;97344.31;4228411;33;33681;-85
2022/03/31 09:15:56;;;;;;;29.55;13.85;;;;;;;12.94;73.99;97347.50;4230304;33;34619;-82
2022/03/31 09:18:27;;;;;;;23.42;11.75;;;;;;;12.50;77.58;97353.22;4232270;33;35050;-80
2022/03/31 09:20:58;;;;;;;27.80;12.63;;;;;;;13.09;74.54;97340.59;4230281;33;35338;-86
2022/03/31 09:23:28;;;;;;;27.00;12.82;;;;;;;12.58;77.03;97334.56;4231646;33;34243;-85
2022/03/31 09:26:07;;;;;;;23.55;13.82;;;;;;;12.44;78.04;97336.13;4229868;33;34707;-86
2022/03/31 09:28:36;;;;;;;25.75;14.15;;;;;;;12.41;77.96;97335.44;4232328;33;35146;-84
2022/03/31 09:31:08;;;;;;;24.05;14.00;;;;;;;12.60;77.23;97328.34;4229064;33;34430;-87
2022/03/31 09:33:37;;;;;;;27.20;14.13;;;;;;;12.33;79.53;97330.56;4239961;33;34716;-81
2022/03/31 09:36:11;;;;;;;29.35;15.00;;;;;;;12.58;78.36;97330.16;4241742;33;33800;-87
2022/03/31 09:38:43;;;;;;;38.70;16.52;;;;;;;12.67;77.67;97327.13;4242799;33;33532;-86
2022/03/31 09:41:20;;;;;;;25.35;13.18;;;;;;;12.41;78.87;97333.66;4230649;33;34398;-89
2022/03/31 09:43:49;;;;;;;24.20;14.25;;;;;;;12.47;78.71;97324.66;4218849;33;33050;-85
2022/03/31 09:46:21;;;;;;;20.67;12.23;;;;;;;12.59;79.15;97321.44;4231317;33;34630;-89
2022/03/31 09:48:50;;;;;;;36.10;13.75;;;;;;;12.75;77.73;97321.47;4230127;33;34748;-82
2022/03/31 09:51:20;;;;;;;22.73;13.68;;;;;;;12.62;77.45;97315.22;4231579;33;35712;-83
2022/03/31 09:53:50;;;;;;;26.42;13.98;;;;;;;12.56;77.14;97321.56;4234015;33;33803;-81
2022/03/31 09:56:20;;;;;;;22.50;12.85;;;;;;;12.38;77.73;97312.94;4232151;33;33897;-86
2022/03/31 09:58:49;;;;;;;27.00;14.52;;;;;;;12.36;78.31;97306.94;4234042;33;35957;-84
2022/03/31 10:01:18;;;;;;;28.20;14.52;;;;;;;12.22;80.21;97312.84;4232265;33;35255;-86
2022/03/31 10:03:48;;;;;;;24.73;14.20;;;;;;;11.96;81.19;97316.75;4234092;33;34020;-82
2022/03/31 10:06:17;;;;;;;27.85;13.05;;;;;;;12.07;79.93;97305.78;4233233;33;33098;-88
2022/03/31 10:08:47;;;;;;;28.27;14.87;;;;;;;12.65;77.23;97310.69;4232867;33;35542;-87
2022/03/31 10:11:21;;;;;;;29.52;13.20;;;;;;;12.03;80.96;97301.66;4232233;33;35103;-85
2022/03/31 10:13:52;;;;;;;33.38;15.65;;;;;;;12.40;78.66;97295.41;4233096;33;34682;-87
2022/03/31 10:16:47;;;;;;;27.50;15.93;;;;;;;12.45;78.75;97301.25;4231581;33;33857;-83
2022/03/31 10:19:35;;;;;;;26.52;14.95;;;;;;;12.45;79.71;97295.19;4232038;33;34665;-85
2022/03/31 10:25:05;;;;;;;23.27;13.35;;;;;;;12.32;79.92;97303.66;4231963;33;33338;-86
2022/03/31 10:27:35;;;;;;;25.58;13.88;;;;;;;12.28;79.95;97301.25;4231729;33;33690;-85
2022/03/31 10:30:14;;;;;;;28.35;13.62;;;;;;;12.25;79.31;97302.28;4233699;33;34938;-86
2022/03/31 10:33:03;;;;;;;25.80;13.52;;;;;;;12.04;80.37;97301.56;4233214;33;35395;-85
2022/03/31 10:35:33;;;;;;;28.98;13.68;;;;;;;12.10;80.70;97303.03;4232951;33;33812;-85
2022/03/31 10:38:20;;;;;;;20.55;12.35;;;;;;;12.50;79.64;97299.25;4233415;33;33945;-85
2022/03/31 10:40:52;;;;;;;24.63;13.20;;;;;;;12.75;77.39;97287.53;4244343;33;34931;-85
2022/03/31 10:43:29;;;;;;;27.30;14.60;;;;;;;12.65;78.11;97288.94;4242370;33;35266;-85
2022/03/31 10:46:00;;;;;;;23.42;13.10;;;;;;;12.58;78.78;97282.34;4233876;33;33874;-85
2022/03/31 10:48:36;;;;;;;25.05;13.60;;;;;;;12.73;77.83;97268.50;4219158;34;34076;-83
2022/03/31 10:51:10;;;;;;;21.45;11.40;;;;;;;12.67;78.59;97260.97;4219587;33;35952;-85
2022/03/31 10:53:40;;;;;;;26.42;14.98;;;;;;;12.60;79.87;97252.62;4207321;34;34213;-82
2022/03/31 10:56:24;;;;;;;27.77;13.88;;;;;;;12.12;83.49;97246.41;4220041;33;33746;-85
2022/03/31 10:59:00;;;;;;;28.60;14.93;;;;;;;12.60;81.27;97244.81;4220658;33;33922;-86
2022/03/31 11:01:33;;;;;;;26.37;14.38;;;;;;;12.59;81.34;97242.28;4232749;33;34957;-85
2022/03/31 11:04:12;;;;;;;28.20;14.18;;;;;;;12.99;79.35;97240.97;4233896;33;34433;-85
2022/03/31 11:06:55;;;;;;;24.60;13.43;;;;;;;12.82;79.01;97243.66;4231972;33;33955;-83
2022/03/31 11:09:31;;;;;;;29.20;13.75;;;;;;;12.80;80.95;97235.06;4233808;33;33974;-85
2022/03/31 11:11:59;;;;;;;24.55;13.30;;;;;;;12.79;79.78;97228.16;4232934;33;35772;-86
2022/03/31 11:14:28;;;;;;;31.17;14.13;;;;;;;12.87;81.10;97233.81;4233412;33;35178;-85
2022/03/31 11:16:56;;;;;;;20.50;12.82;;;;;;;12.40;81.38;97224.94;4231737;33;33640;-85
2022/03/31 11:19:34;;;;;;;23.90;12.18;;;;;;;12.82;79.01;97228.00;4233656;33;33508;-85
2022/03/31 11:22:02;;;;;;;18.45;11.75;;;;;;;12.68;80.41;97216.50;4232290;33;35857;-86
2022/03/31 11:24:30;;;;;;;21.12;13.45;;;;;;;12.53;81.50;97222.56;4232198;33;35396;-85
2022/03/31 11:26:58;;;;;;;24.87;13.65;;;;;;;12.42;81.56;97214.44;4232980;33;33807;-85
2022/03/31 11:29:29;;;;;;;22.70;13.00;;;;;;;12.67;81.39;97217.44;4233707;33;34004;-82
2022/03/31 11:31:57;;;;;;;25.17;12.37;;;;;;;12.98;79.13;97213.16;4231734;33;34842;-82
2022/03/31 11:34:27;;;;;;;24.52;13.07;;;;;;;12.65;79.82;97211.47;4232749;33;34663;-82
2022/03/31 11:37:00;;;;;;;23.58;13.45;;;;;;;12.83;79.30;97204.41;4232888;33;34534;-86
2022/03/31 11:39:30;;;;;;;19.17;12.95;;;;;;;12.79;79.37;97212.47;4233662;33;33923;-86